createdAt,value
2024-04-05T00:02:15.474Z,21.9
2024-04-05T00:07:21.080Z,21.9
2024-04-05T00:12:44.968Z,21.9
2024-04-05T00:18:06.947Z,21.9
2024-04-05T00:23:28.272Z,21.9
2024-04-05T00:28:49.337Z,21.9
2024-04-05T00:33:54.649Z,21.9
2024-04-05T00:39:15.502Z,21.9
2024-04-05T00:44:40.196Z,21.9
2024-04-05T00:50:01.985Z,21.9
2024-04-05T00:55:23.175Z,21.8
2024-04-05T00:59:57.937Z,21.8
2024-04-05T01:05:19.074Z,21.8
2024-04-05T01:10:55.422Z,21.8
2024-04-05T01:16:31.978Z,21.8
2024-04-05T01:21:53.085Z,21.8
2024-04-05T01:27:29.828Z,21.8
2024-04-05T01:33:05.897Z,21.8
2024-04-05T01:38:41.662Z,21.8
2024-04-05T01:44:18.812Z,21.8
2024-04-05T01:49:40.831Z,21.8
2024-04-05T01:54:46.485Z,21.7
2024-04-05T02:00:23.505Z,21.7
2024-04-05T02:06:00.210Z,21.8
2024-04-05T02:11:36.428Z,21.7
2024-04-05T02:17:13.176Z,21.7
2024-04-05T02:22:49.893Z,21.7
2024-04-05T02:28:26.026Z,21.7
2024-04-05T02:34:02.795Z,21.7
2024-04-05T02:39:23.596Z,21.6
2024-04-05T02:44:59.698Z,21.7
2024-04-05T02:50:36.655Z,21.6
2024-04-05T02:55:41.608Z,21.6
2024-04-05T03:01:17.797Z,21.6
2024-04-05T03:06:53.957Z,21.6
2024-04-05T03:12:30.603Z,21.6
2024-04-05T03:18:07.947Z,21.6
2024-04-05T03:23:44.325Z,21.6
2024-04-05T03:29:20.084Z,21.6
2024-04-05T03:34:57.051Z,21.6
2024-04-05T03:40:34.301Z,21.6
2024-04-05T03:45:39.800Z,21.6
2024-04-05T03:50:45.430Z,21.6
2024-04-05T03:56:22.550Z,21.5
2024-04-05T04:01:58.585Z,21.5
2024-04-05T04:07:34.454Z,21.5
2024-04-05T04:12:58.018Z,21.5
2024-04-05T04:18:34.413Z,21.5
2024-04-05T04:24:10.208Z,21.4
2024-04-05T04:29:33.435Z,21.4
2024-04-05T04:34:54.247Z,21.4
2024-04-05T04:40:17.328Z,21.4
2024-04-05T04:45:39.105Z,21.4
2024-04-05T04:51:01.450Z,21.4
2024-04-05T04:56:22.843Z,21.4
2024-04-05T05:01:28.702Z,21.4
2024-04-05T05:06:34.515Z,21.4
2024-04-05T05:11:40.067Z,21.4
2024-04-05T05:17:01.924Z,21.4
2024-04-05T05:22:26.138Z,21.4
2024-04-05T05:27:47.862Z,21.4
2024-04-05T05:33:09.367Z,21.4
2024-04-05T05:38:32.496Z,21.4
2024-04-05T05:43:53.692Z,21.4
2024-04-05T05:49:14.697Z,21.4
2024-04-05T05:54:35.874Z,21.4
2024-04-05T06:00:00.282Z,23.1
2024-04-05T06:05:37.067Z,26.4
2024-04-05T06:10:58.224Z,25.5
2024-04-05T06:16:19.209Z,24.4
2024-04-05T06:21:41.074Z,28.9
2024-04-05T06:26:46.343Z,29.6
2024-04-05T06:32:08.039Z,30.3
2024-04-05T06:37:31.420Z,31
2024-04-05T06:42:51.952Z,31.6
2024-04-05T06:48:16.393Z,32.4
2024-04-05T06:53:40.600Z,33.3
2024-04-05T06:59:01.794Z,34.1
2024-04-05T07:04:07.403Z,34.8
2024-04-05T07:09:29.126Z,35.6
2024-04-05T07:15:05.388Z,36.4
2024-04-05T07:20:29.673Z,37.2
2024-04-05T07:25:50.682Z,37.9
2024-04-05T07:31:12.821Z,38.8
2024-04-05T07:36:34.924Z,39.6
2024-04-05T07:41:40.737Z,40.4
2024-04-05T07:47:02.126Z,41.3
2024-04-05T07:52:23.377Z,42.1
2024-04-05T07:57:40.193Z,42.9
2024-04-05T08:03:00.699Z,43.8
2024-04-05T08:08:21.692Z,44.6
2024-04-05T08:13:59.805Z,45.4
2024-04-05T08:19:36.528Z,46.3
2024-04-05T08:25:12.483Z,47.1
2024-04-05T08:30:49.136Z,48
2024-04-05T08:36:26.959Z,48.8
2024-04-05T08:41:48.207Z,49.6
2024-04-05T08:46:42.497Z,50.2
2024-04-05T08:52:05.388Z,50.8
2024-04-05T08:57:28.933Z,51.2
2024-04-05T09:03:05.377Z,51.8
2024-04-05T09:08:41.408Z,52.3
2024-04-05T09:14:33.511Z,52.7
2024-04-05T09:20:10.007Z,53.2
2024-04-05T09:25:31.292Z,53.7
2024-04-05T09:31:10.023Z,53.9
2024-04-05T09:36:46.963Z,54.3
2024-04-05T09:42:23.722Z,54.6
2024-04-05T09:48:19.862Z,54.7
2024-04-05T09:53:56.243Z,54.9
2024-04-05T09:59:17.477Z,54.8
2024-04-05T10:04:54.621Z,53.6
2024-04-05T10:10:18.706Z,55.1
2024-04-05T10:16:06.980Z,53.1
2024-04-05T10:21:29.338Z,52.4
2024-04-05T10:27:06.181Z,52.3
2024-04-05T10:32:27.523Z,52.3
2024-04-05T10:38:14.368Z,52
2024-04-05T10:43:54.388Z,51.6
2024-04-05T10:49:33.595Z,51.3
2024-04-05T10:55:12.861Z,51.6
2024-04-05T11:00:34.844Z,51.1
2024-04-05T11:05:56.466Z,50.6
2024-04-05T11:11:32.768Z,50.1
2024-04-05T11:16:42.172Z,49.6
2024-04-05T11:22:18.919Z,49.5
2024-04-05T11:27:55.675Z,49.1
2024-04-05T11:33:32.291Z,50.4
2024-04-05T11:39:11.662Z,49.4
2024-04-05T11:45:01.229Z,48.1
2024-04-05T11:50:38.698Z,47.7
2024-04-05T11:56:16.012Z,47.3
2024-04-05T12:01:52.759Z,46.9
2024-04-05T12:07:29.184Z,45.9
2024-04-05T12:12:50.799Z,46.5
2024-04-05T12:18:31.735Z,47.3
2024-04-05T12:24:08.553Z,46.7
2024-04-05T12:30:02.015Z,46.5
2024-04-05T12:35:38.987Z,46.3
2024-04-05T12:41:33.161Z,46.1
2024-04-05T12:47:09.429Z,45.7
2024-04-05T12:52:49.686Z,45.3
2024-04-05T12:58:29.125Z,45
2024-04-05T13:04:12.922Z,44.7
2024-04-05T13:09:49.404Z,44.5
2024-04-05T13:15:27.336Z,44.4
2024-04-05T13:21:06.121Z,45.3
2024-04-05T13:26:30.339Z,45.8
2024-04-05T13:32:06.348Z,46.1
2024-04-05T13:37:28.069Z,46.3
2024-04-05T13:43:07.934Z,46.3
2024-04-05T13:48:44.496Z,46.4
2024-04-05T13:54:06.077Z,46.3
2024-04-05T13:59:45.048Z,46.6
2024-04-05T14:05:23.119Z,46.4
2024-04-05T14:11:01.707Z,46.6
2024-04-05T14:16:39.517Z,46.6
2024-04-05T14:22:16.704Z,46.6
2024-04-05T14:27:56.600Z,46.4
2024-04-05T14:33:29.220Z,46.3
2024-04-05T14:39:19.257Z,46
2024-04-05T14:44:56.968Z,45.8
2024-04-05T14:50:34.198Z,45.5
2024-04-05T14:56:11.900Z,45.3
2024-04-05T15:01:37.318Z,44.9
2024-04-05T15:07:16.262Z,44.6
2024-04-05T15:12:23.832Z,44.3
2024-04-05T15:17:45.323Z,43.9
2024-04-05T15:23:22.651Z,43.4
2024-04-05T15:28:46.957Z,42.9
2024-04-05T15:33:54.369Z,42.4
2024-04-05T15:39:16.214Z,40.9
2024-04-05T15:44:52.774Z,38.8
2024-04-05T15:50:38.122Z,40.6
2024-04-05T15:56:10.206Z,39.9
2024-04-05T16:01:47.693Z,37.9
2024-04-05T16:07:28.959Z,36.4
2024-04-05T16:13:05.615Z,35.2
2024-04-05T16:18:41.855Z,34.2
2024-04-05T16:24:17.948Z,33.3
2024-04-05T16:29:53.944Z,32.6
2024-04-05T16:35:15.057Z,31.9
2024-04-05T16:40:51.907Z,31.4
2024-04-05T16:46:13.218Z,31.1
2024-04-05T16:51:36.760Z,30.4
2024-04-05T16:57:13.007Z,29.8
2024-04-05T17:02:51.646Z,29.2
2024-04-05T17:08:27.950Z,28.6
2024-04-05T17:13:49.037Z,28.1
2024-04-05T17:19:26.042Z,27.5
2024-04-05T17:24:49.168Z,27
2024-04-05T17:30:25.361Z,26.6
2024-04-05T17:36:01.889Z,26.3
2024-04-05T17:41:38.277Z,25.9
2024-04-05T17:46:44.226Z,25.7
2024-04-05T17:52:20.630Z,25.4
2024-04-05T17:57:57.249Z,25.3
2024-04-05T18:03:19.850Z,24.8
2024-04-05T18:08:56.792Z,24.3
2024-04-05T18:14:17.899Z,23.8
2024-04-05T18:19:38.332Z,23.5
2024-04-05T18:25:14.805Z,23.3
2024-04-05T18:30:52.852Z,23.1
2024-04-05T18:36:29.827Z,22.8
2024-04-05T18:42:06.932Z,22.7
2024-04-05T18:47:44.085Z,22.6
2024-04-05T18:53:20.660Z,22.4
2024-04-05T18:58:41.943Z,22.4
2024-04-05T19:04:18.523Z,22.3
2024-04-05T19:09:55.193Z,22.3
2024-04-05T19:15:34.224Z,22.1
2024-04-05T19:20:55.139Z,22.1
2024-04-05T19:26:31.978Z,22
2024-04-05T19:32:08.945Z,21.9
2024-04-05T19:37:45.109Z,21.9
2024-04-05T19:43:21.553Z,21.8
2024-04-05T19:48:44.034Z,21.8
2024-04-05T19:54:20.662Z,21.8
2024-04-05T19:59:57.695Z,21.7
2024-04-05T20:05:34.065Z,21.6
2024-04-05T20:11:12.174Z,21.6
2024-04-05T20:16:35.023Z,21.6
2024-04-05T20:22:12.035Z,21.6
2024-04-05T20:27:51.433Z,21.6
2024-04-05T20:33:28.877Z,21.5
2024-04-05T20:38:49.684Z,21.5
2024-04-05T20:44:10.786Z,21.4
2024-04-05T20:49:47.720Z,21.4
2024-04-05T20:55:09.272Z,21.4
2024-04-05T21:00:31.836Z,21.4
2024-04-05T21:05:52.757Z,21.3
2024-04-05T21:11:28.727Z,21.3
2024-04-05T21:17:04.560Z,21.3
2024-04-05T21:22:34.916Z,21.3
2024-04-05T21:28:10.828Z,21.3
2024-04-05T21:33:31.768Z,21.3
2024-04-05T21:39:08.194Z,21.2
2024-04-05T21:44:30.755Z,21.3
2024-04-05T21:51:34.895Z,21.2
2024-04-05T21:57:11.656Z,21.2
2024-04-05T22:24:12.089Z,21.1
2024-04-05T22:29:17.211Z,21.1
2024-04-05T22:34:54.032Z,21.1
2024-04-05T22:40:33.025Z,21.1
2024-04-05T22:46:09.417Z,21.1
2024-04-05T22:51:46.447Z,21
2024-04-05T22:57:07.198Z,21
2024-04-05T23:02:51.971Z,21
2024-04-05T23:08:29.233Z,21
2024-04-05T23:13:49.953Z,21.1
2024-04-05T23:19:26.178Z,21
2024-04-05T23:25:02.815Z,21
2024-04-05T23:30:39.502Z,21
2024-04-05T23:36:16.116Z,21
2024-04-05T23:41:52.801Z,20.9
2024-04-05T23:47:15.028Z,21
2024-04-05T23:52:51.699Z,20.9
2024-04-05T23:58:30.282Z,20.9
